Time;durP1;ratioP1;P1;durP2;ratioP2;P2;SDS_P1;SDS_P2;PMS_P1;PMS_P2;Temp;Humidity;BMP_temperature;BMP_pressure;BME280_temperature;BME280_humidity;BME280_pressure;Samples;Min_cycle;Max_cycle;Signal;HPM_P1;HPM_P2
2024/01/12 00:01:29;;;;;;;1.00;1.00;;;;;;;-5.63;100.00;100864.94;5081278;28;20118;-60
2024/01/12 00:03:56;;;;;;;1.10;1.10;;;;;;;-5.56;100.00;100865.41;5081593;28;20075;-60
2024/01/12 00:06:24;;;;;;;1.08;1.08;;;;;;;-5.54;100.00;100871.34;5080293;28;20888;-60
2024/01/12 00:08:51;;;;;;;1.10;1.10;;;;;;;-5.55;100.00;100880.97;5080380;28;20151;-60
2024/01/12 00:11:19;;;;;;;1.05;1.05;;;;;;;-5.50;100.00;100881.50;5077927;28;20575;-60
2024/01/12 00:13:47;;;;;;;1.10;1.10;;;;;;;-5.38;100.00;100885.09;5079793;28;20064;-60
2024/01/12 00:16:14;;;;;;;1.00;1.00;;;;;;;-5.22;100.00;100872.72;5078694;28;20040;-60
2024/01/12 00:18:41;;;;;;;1.10;1.10;;;;;;;-5.26;100.00;100878.25;5075175;28;20525;-60
2024/01/12 00:21:08;;;;;;;1.10;1.10;;;;;;;-5.21;100.00;100884.84;5062410;28;20494;-60
2024/01/12 00:23:35;;;;;;;1.10;1.10;;;;;;;-5.12;100.00;100885.16;5081521;28;20042;-60
2024/01/12 00:26:02;;;;;;;1.10;1.10;;;;;;;-5.10;100.00;100883.28;5078710;28;20425;-60
2024/01/12 00:28:32;;;;;;;1.10;1.10;;;;;;;-5.07;100.00;100888.31;5076002;28;20040;-60
2024/01/12 00:30:59;;;;;;;1.08;1.08;;;;;;;-4.95;100.00;100891.91;5080302;28;20043;-60
2024/01/12 00:33:26;;;;;;;1.10;1.10;;;;;;;-4.96;100.00;100883.22;5075744;28;20051;-60
2024/01/12 00:35:53;;;;;;;1.00;1.00;;;;;;;-4.88;100.00;100885.34;5076005;28;20047;-58
2024/01/12 00:38:20;;;;;;;1.02;1.02;;;;;;;-4.82;100.00;100884.91;5078664;28;20542;-58
2024/01/12 00:40:47;;;;;;;0.90;0.90;;;;;;;-4.78;100.00;100875.94;5080151;28;20092;-61
2024/01/12 00:43:14;;;;;;;1.08;1.08;;;;;;;-4.79;100.00;100879.50;5074740;28;20052;-58
2024/01/12 00:45:42;;;;;;;1.00;1.00;;;;;;;-4.80;100.00;100872.56;5052666;28;20143;-59
2024/01/12 00:48:09;;;;;;;1.10;1.10;;;;;;;-4.72;100.00;100870.25;5053400;28;20040;-61
2024/01/12 00:50:39;;;;;;;1.10;1.10;;;;;;;-4.66;100.00;100869.03;5080386;28;20549;-61
2024/01/12 00:53:07;;;;;;;1.10;1.10;;;;;;;-4.68;100.00;100870.91;5081112;28;20471;-60
2024/01/12 00:55:34;;;;;;;1.10;1.10;;;;;;;-4.43;100.00;100862.22;5080214;28;20543;-61
2024/01/12 00:58:01;;;;;;;1.10;1.10;;;;;;;-4.45;100.00;100867.53;5076401;28;20484;-60
2024/01/12 01:00:30;;;;;;;1.00;1.00;;;;;;;-4.48;100.00;100862.53;5080571;28;20117;-61
2024/01/12 01:03:01;;;;;;;1.10;1.10;;;;;;;-4.37;100.00;100867.88;5063804;28;20387;-60
2024/01/12 01:05:29;;;;;;;1.10;1.10;;;;;;;-4.31;100.00;100858.75;5065711;28;20048;-60
2024/01/12 01:07:56;;;;;;;1.10;1.10;;;;;;;-4.27;100.00;100861.97;5081435;28;20063;-60
2024/01/12 01:10:23;;;;;;;1.10;1.10;;;;;;;-4.22;100.00;100867.72;5071636;28;20047;-60
2024/01/12 01:12:50;;;;;;;1.00;1.00;;;;;;;-4.18;100.00;100862.19;5086564;28;20040;-60
2024/01/12 01:15:18;;;;;;;1.02;1.02;;;;;;;-4.20;100.00;100866.69;5082068;28;20101;-60
2024/01/12 01:17:45;;;;;;;1.00;1.00;;;;;;;-4.14;100.00;100876.75;5081880;28;20039;-60
2024/01/12 01:20:15;;;;;;;0.95;0.95;;;;;;;-4.16;100.00;100872.56;5065275;28;20130;-60
2024/01/12 01:22:42;;;;;;;1.00;1.00;;;;;;;-4.21;100.00;100879.91;5082407;28;20068;-60
2024/01/12 01:25:10;;;;;;;1.00;1.00;;;;;;;-4.19;100.00;100886.69;5082240;28;20051;-60
2024/01/12 01:27:37;;;;;;;1.10;1.10;;;;;;;-4.22;100.00;100889.53;5084616;28;20484;-60
2024/01/12 01:30:07;;;;;;;1.10;1.10;;;;;;;-4.09;100.00;100883.41;5074954;28;20044;-60
2024/01/12 01:32:34;;;;;;;1.10;1.10;;;;;;;-4.04;100.00;100881.31;5077581;28;20465;-60
2024/01/12 01:35:02;;;;;;;1.10;1.10;;;;;;;-4.08;100.00;100887.72;5082929;28;20044;-60
2024/01/12 01:37:30;;;;;;;1.00;1.00;;;;;;;-4.05;100.00;100893.56;5077508;28;20078;-60
2024/01/12 01:39:57;;;;;;;1.08;1.08;;;;;;;-4.21;100.00;100896.44;5082596;28;20046;-60
2024/01/12 01:42:24;;;;;;;1.00;1.00;;;;;;;-4.10;100.00;100889.63;5082846;28;20566;-60
2024/01/12 01:44:51;;;;;;;0.90;0.90;;;;;;;-4.05;100.00;100877.88;5078974;28;20058;-60
2024/01/12 01:47:18;;;;;;;0.90;0.90;;;;;;;-4.04;100.00;100886.56;5085119;28;20137;-60
2024/01/12 01:49:45;;;;;;;1.00;1.00;;;;;;;-4.02;100.00;100897.75;5085986;28;20044;-60
2024/01/12 01:52:14;;;;;;;1.00;1.00;;;;;;;-4.00;100.00;100893.25;5084247;28;20097;-60
2024/01/12 01:54:43;;;;;;;1.10;1.10;;;;;;;-3.91;100.00;100892.63;5078630;28;20042;-60
2024/01/12 01:57:10;;;;;;;1.00;1.00;;;;;;;-4.03;100.00;100891.69;5080268;28;20048;-60
2024/01/12 01:59:37;;;;;;;1.00;1.00;;;;;;;-3.92;100.00;100894.41;5083442;28;20126;-60
2024/01/12 02:02:05;;;;;;;1.02;1.02;;;;;;;-3.84;100.00;100883.38;5083133;28;20044;-60
2024/01/12 02:04:32;;;;;;;0.90;0.90;;;;;;;-3.84;100.00;100883.38;5080659;28;20143;-60
2024/01/12 02:06:59;;;;;;;0.90;0.90;;;;;;;-3.81;100.00;100887.56;5081870;28;20046;-60
2024/01/12 02:09:27;;;;;;;1.08;1.08;;;;;;;-3.82;100.00;100883.25;5082375;28;20125;-60
2024/01/12 02:11:55;;;;;;;0.90;0.90;;;;;;;-3.77;100.00;100879.38;5074778;28;20040;-60
2024/01/12 02:14:24;;;;;;;1.10;1.10;;;;;;;-3.81;100.00;100875.31;5079392;28;20675;-60
2024/01/12 02:16:51;;;;;;;1.00;1.00;;;;;;;-3.80;100.00;100874.34;5081666;28;20494;-60
2024/01/12 02:19:18;;;;;;;1.05;1.05;;;;;;;-3.77;100.00;100871.53;5081121;28;20125;-60
2024/01/12 02:21:46;;;;;;;1.00;1.00;;;;;;;-3.75;100.00;100877.47;5079067;28;20055;-60
2024/01/12 02:24:13;;;;;;;1.00;1.00;;;;;;;-3.77;100.00;100879.38;5079343;28;20065;-60
2024/01/12 02:26:40;;;;;;;1.08;1.08;;;;;;;-3.79;100.00;100883.06;5082500;28;20063;-60
2024/01/12 02:29:10;;;;;;;1.00;1.00;;;;;;;-3.77;100.00;100883.75;5081187;28;20044;-60
2024/01/12 02:31:37;;;;;;;1.05;1.05;;;;;;;-3.76;100.00;100881.03;5084056;28;20048;-60
2024/01/12 02:34:04;;;;;;;0.90;0.90;;;;;;;-3.74;100.00;100886.19;5065199;28;20044;-60
2024/01/12 02:36:31;;;;;;;1.00;1.00;;;;;;;-3.88;100.00;100878.47;5077923;28;20143;-60
2024/01/12 02:38:59;;;;;;;1.02;1.02;;;;;;;-3.93;100.00;100884.03;5083715;28;20437;-60
2024/01/12 02:41:26;;;;;;;1.00;1.00;;;;;;;-3.91;100.00;100885.59;5074135;28;20248;-60
2024/01/12 02:43:54;;;;;;;1.00;1.00;;;;;;;-3.88;100.00;100881.09;5074332;28;20055;-60
2024/01/12 02:46:21;;;;;;;1.00;1.00;;;;;;;-3.78;100.00;100877.69;5075563;28;20044;-61
2024/01/12 02:48:48;;;;;;;1.10;1.10;;;;;;;-3.82;100.00;100873.63;5079952;28;20127;-60
2024/01/12 02:51:15;;;;;;;1.05;1.05;;;;;;;-3.75;100.00;100874.84;5079708;28;20419;-59
2024/01/12 02:53:43;;;;;;;1.00;1.00;;;;;;;-3.73;100.00;100869.50;5082343;28;20645;-59
2024/01/12 02:56:12;;;;;;;1.10;1.10;;;;;;;-3.72;100.00;100872.03;5082987;28;20383;-59
2024/01/12 02:58:40;;;;;;;0.90;0.90;;;;;;;-3.65;100.00;100866.34;5080811;28;20032;-59
2024/01/12 03:01:07;;;;;;;1.10;1.10;;;;;;;-3.62;100.00;100876.59;5058708;28;20048;-59
2024/01/12 03:03:34;;;;;;;1.00;1.00;;;;;;;-3.65;100.00;100871.56;5082042;28;20058;-59
2024/01/12 03:06:02;;;;;;;1.00;1.00;;;;;;;-3.64;100.00;100865.38;5077829;28;20117;-59
2024/01/12 03:08:30;;;;;;;1.08;1.08;;;;;;;-3.58;100.00;100870.19;5073303;28;20040;-59
2024/01/12 03:10:57;;;;;;;1.05;1.05;;;;;;;-3.65;100.00;100866.34;5058546;28;20044;-59
2024/01/12 03:13:27;;;;;;;1.00;1.00;;;;;;;-3.53;100.00;100871.53;5062325;28;20040;-59
2024/01/12 03:15:54;;;;;;;1.00;1.00;;;;;;;-3.78;100.00;100871.63;5062293;28;20120;-59
2024/01/12 03:18:22;;;;;;;0.90;0.90;;;;;;;-3.63;100.00;100859.19;5059770;28;20064;-60
2024/01/12 03:20:49;;;;;;;1.00;1.00;;;;;;;-3.60;100.00;100859.81;5063406;28;20060;-59
2024/01/12 03:23:16;;;;;;;0.93;0.93;;;;;;;-3.79;100.00;100852.44;5059194;28;20525;-59
2024/01/12 03:25:44;;;;;;;1.00;1.00;;;;;;;-3.76;100.00;100852.22;5060150;28;20578;-59
2024/01/12 03:28:11;;;;;;;1.00;1.00;;;;;;;-3.70;100.00;100853.56;5054930;28;20048;-59
2024/01/12 03:30:39;;;;;;;1.08;1.08;;;;;;;-3.68;100.00;100856.91;5061034;28;20544;-59
2024/01/12 03:33:08;;;;;;;1.00;1.00;;;;;;;-3.64;100.00;100847.88;5060551;28;20044;-59
2024/01/12 03:35:35;;;;;;;0.90;0.90;;;;;;;-3.42;100.00;100852.41;5054568;28;20134;-59
2024/01/12 03:38:02;;;;;;;1.00;1.00;;;;;;;-3.62;100.00;100847.75;5057001;28;20041;-59
2024/01/12 03:40:29;;;;;;;1.10;1.10;;;;;;;-3.61;100.00;100852.06;5056545;28;20076;-59
2024/01/12 03:42:56;;;;;;;0.95;0.95;;;;;;;-3.57;100.00;100862.22;5063039;28;20064;-58
2024/01/12 03:45:23;;;;;;;1.10;1.10;;;;;;;-3.52;100.00;100851.38;5059795;28;20164;-59
2024/01/12 03:47:51;;;;;;;1.10;1.10;;;;;;;-3.53;100.00;100849.72;5062607;28;20136;-59
2024/01/12 03:50:18;;;;;;;1.10;1.10;;;;;;;-3.53;100.00;100853.16;5059004;28;20139;-58
2024/01/12 03:52:45;;;;;;;1.00;1.00;;;;;;;-3.59;100.00;100845.78;5056169;28;20414;-59
2024/01/12 03:55:12;;;;;;;1.00;1.00;;;;;;;-3.66;100.00;100841.91;5059463;28;20102;-59
2024/01/12 03:57:39;;;;;;;1.00;1.00;;;;;;;-3.59;100.00;100840.53;5062139;28;20123;-59
2024/01/12 04:00:08;;;;;;;1.10;1.10;;;;;;;-3.79;100.00;100839.34;5077395;28;20044;-59
2024/01/12 04:02:35;;;;;;;0.90;0.90;;;;;;;-3.65;100.00;100840.13;5057013;28;20083;-60
2024/01/12 04:05:04;;;;;;;1.00;1.00;;;;;;;-3.54;100.00;100841.03;5061468;28;20071;-59
2024/01/12 04:07:31;;;;;;;1.10;1.10;;;;;;;-3.55;100.00;100834.09;5056771;28;20396;-59
2024/01/12 04:09:58;;;;;;;1.00;1.00;;;;;;;-3.58;100.00;100834.31;5069649;28;20051;-58
2024/01/12 04:12:25;;;;;;;1.02;1.02;;;;;;;-3.55;100.00;100836.72;5075403;28;20063;-58
2024/01/12 04:14:53;;;;;;;1.05;1.05;;;;;;;-3.53;100.00;100834.81;5080338;28;20046;-60
2024/01/12 04:17:20;;;;;;;0.90;0.90;;;;;;;-3.56;100.00;100834.22;5081843;28;20036;-61
2024/01/12 04:19:48;;;;;;;0.98;0.98;;;;;;;-3.53;100.00;100834.00;5064927;28;20137;-59
2024/01/12 04:22:16;;;;;;;1.00;1.00;;;;;;;-3.62;100.00;100832.91;5082203;28;20516;-58
2024/01/12 04:24:43;;;;;;;1.00;1.00;;;;;;;-3.51;100.00;100832.09;5081050;28;20044;-58
2024/01/12 04:27:10;;;;;;;0.90;0.90;;;;;;;-3.52;100.00;100840.91;5061858;28;20040;-60
2024/01/12 04:29:38;;;;;;;0.90;0.90;;;;;;;-3.58;100.00;100846.59;5080781;28;20039;-60
2024/01/12 04:32:06;;;;;;;0.90;0.90;;;;;;;-3.50;100.00;100852.09;5078594;28;20115;-59
2024/01/12 04:34:37;;;;;;;1.08;1.08;;;;;;;-3.43;100.00;100837.59;5075078;28;20062;-60
2024/01/12 04:37:05;;;;;;;0.80;0.80;;;;;;;-3.38;100.00;100837.28;5036946;28;20046;-60
2024/01/12 04:39:34;;;;;;;0.90;0.90;;;;;;;-3.42;100.00;100841.91;5074236;28;20040;-61
2024/01/12 04:42:01;;;;;;;1.00;1.00;;;;;;;-3.46;100.00;100845.72;5080163;28;20436;-60
2024/01/12 04:44:29;;;;;;;1.00;1.00;;;;;;;-3.48;100.00;100847.59;5072451;28;20048;-60
2024/01/12 04:46:56;;;;;;;0.85;0.85;;;;;;;-3.48;100.00;100839.72;5079917;28;20159;-59
2024/01/12 04:49:23;;;;;;;0.88;0.88;;;;;;;-3.69;100.00;100837.72;5072817;28;20414;-60
2024/01/12 04:51:50;;;;;;;1.00;1.00;;;;;;;-3.61;100.00;100842.41;5072888;28;20055;-58
2024/01/12 04:54:17;;;;;;;1.00;1.00;;;;;;;-3.44;100.00;100841.19;5058015;28;20075;-58
2024/01/12 04:56:45;;;;;;;0.93;0.93;;;;;;;-3.54;100.00;100845.44;5080517;28;20159;-59
2024/01/12 04:59:12;;;;;;;0.90;0.90;;;;;;;-3.60;100.00;100838.00;5080720;28;20098;-59
2024/01/12 05:01:39;;;;;;;1.05;1.05;;;;;;;-3.51;100.00;100842.59;5080926;28;20127;-59
2024/01/12 05:04:06;;;;;;;1.00;1.00;;;;;;;-3.42;100.00;100836.69;5077704;28;20068;-59
2024/01/12 05:06:33;;;;;;;1.08;1.08;;;;;;;-3.62;100.00;100821.56;5074888;28;20156;-59
2024/01/12 05:09:00;;;;;;;0.90;0.90;;;;;;;-3.50;100.00;100828.50;5080344;28;20044;-59
2024/01/12 05:11:27;;;;;;;1.05;1.05;;;;;;;-3.55;100.00;100834.09;5079686;28;20421;-59
2024/01/12 05:13:56;;;;;;;1.00;1.00;;;;;;;-3.56;100.00;100832.44;5075848;28;20051;-59
2024/01/12 05:16:23;;;;;;;1.00;1.00;;;;;;;-3.39;100.00;100835.63;5074787;28;20044;-59
2024/01/12 05:18:50;;;;;;;0.95;0.95;;;;;;;-3.37;100.00;100837.16;5075618;28;20536;-59
2024/01/12 05:21:20;;;;;;;1.00;1.00;;;;;;;-3.32;100.00;100840.28;5077790;28;20051;-59
2024/01/12 05:23:47;;;;;;;1.00;1.00;;;;;;;-3.41;100.00;100834.88;5059242;28;20395;-59
2024/01/12 05:26:14;;;;;;;1.08;1.08;;;;;;;-3.48;100.00;100839.72;5075454;28;20119;-59
2024/01/12 05:28:41;;;;;;;0.95;0.95;;;;;;;-3.37;100.00;100837.16;5078787;28;20560;-59
2024/01/12 05:31:11;;;;;;;1.00;1.00;;;;;;;-3.41;100.00;100832.25;5079378;28;20418;-59
2024/01/12 05:33:38;;;;;;;1.10;1.10;;;;;;;-3.45;100.00;100826.41;5074812;28;20056;-59
2024/01/12 05:36:05;;;;;;;1.00;1.00;;;;;;;-3.49;100.00;100831.03;5073930;28;20059;-59
2024/01/12 05:38:32;;;;;;;0.90;0.90;;;;;;;-3.42;100.00;100822.72;5066377;28;20387;-59
2024/01/12 05:40:59;;;;;;;1.10;1.10;;;;;;;-3.43;100.00;100824.50;5077424;28;20127;-59
2024/01/12 05:43:26;;;;;;;0.90;0.90;;;;;;;-3.48;100.00;100821.38;5076002;28;20052;-59
2024/01/12 05:45:54;;;;;;;0.98;0.98;;;;;;;-3.51;100.00;100816.38;5081089;28;20540;-59
2024/01/12 05:48:25;;;;;;;1.10;1.10;;;;;;;-3.50;100.00;100818.03;5077623;28;20056;-59
2024/01/12 05:50:52;;;;;;;0.98;0.98;;;;;;;-3.57;100.00;100811.56;5081803;28;20051;-59
2024/01/12 05:53:21;;;;;;;1.00;1.00;;;;;;;-3.50;100.00;100816.25;5077984;28;20392;-60
2024/01/12 05:55:49;;;;;;;1.05;1.05;;;;;;;-3.44;100.00;100807.09;5078395;28;20486;-59
2024/01/12 05:58:17;;;;;;;1.10;1.10;;;;;;;-3.36;100.00;100804.75;5083566;28;20143;-60
2024/01/12 06:00:44;;;;;;;1.00;1.00;;;;;;;-3.34;100.00;100808.09;5081772;28;20147;-59
2024/01/12 06:03:11;;;;;;;1.00;1.00;;;;;;;-3.34;100.00;100813.34;5082089;28;20048;-59
2024/01/12 06:05:40;;;;;;;0.90;0.90;;;;;;;-3.31;100.00;100813.09;5079982;28;20052;-60
2024/01/12 06:08:07;;;;;;;1.08;1.08;;;;;;;-3.27;100.00;100824.19;5080041;28;20033;-59
2024/01/12 06:10:35;;;;;;;0.90;0.90;;;;;;;-3.36;100.00;100827.50;5078054;28;20048;-60
2024/01/12 06:13:02;;;;;;;1.02;1.02;;;;;;;-3.31;100.00;100828.84;5084550;28;20399;-59
2024/01/12 06:15:29;;;;;;;0.90;0.90;;;;;;;-3.33;100.00;100833.34;5083069;28;20115;-60
2024/01/12 06:17:57;;;;;;;1.00;1.00;;;;;;;-3.57;100.00;100837.78;5072034;28;20053;-59
2024/01/12 06:20:24;;;;;;;1.00;1.00;;;;;;;-3.62;100.00;100834.66;5081953;28;20051;-59
2024/01/12 06:22:53;;;;;;;1.05;1.05;;;;;;;-3.58;100.00;100846.59;5083528;28;20558;-59
2024/01/12 06:25:20;;;;;;;1.10;1.10;;;;;;;-3.64;100.00;100847.88;5081635;28;20032;-60
2024/01/12 06:27:47;;;;;;;0.93;0.93;;;;;;;-3.52;100.00;100848.75;5080443;28;20122;-59
2024/01/12 06:30:15;;;;;;;0.90;0.90;;;;;;;-3.32;100.00;100847.28;5063887;28;20119;-60
2024/01/12 06:32:42;;;;;;;1.00;1.00;;;;;;;-3.28;100.00;100851.38;5081899;28;20127;-59
2024/01/12 06:35:10;;;;;;;0.95;0.95;;;;;;;-3.40;100.00;100847.03;5084060;28;20048;-59
2024/01/12 06:37:37;;;;;;;1.00;1.00;;;;;;;-3.35;100.00;100848.34;5077537;28;20105;-60
2024/01/12 06:40:07;;;;;;;0.90;0.90;;;;;;;-3.35;100.00;100848.34;5077421;28;20733;-60
2024/01/12 06:42:34;;;;;;;0.90;0.90;;;;;;;-3.52;100.00;100846.13;5080573;28;20390;-59
2024/01/12 06:45:03;;;;;;;1.00;1.00;;;;;;;-3.54;100.00;100845.44;5082805;28;20044;-60
2024/01/12 06:47:29;;;;;;;1.10;1.10;;;;;;;-3.54;100.00;100855.91;5057427;28;20048;-59
2024/01/12 06:49:56;;;;;;;1.10;1.10;;;;;;;-3.57;100.00;100848.25;5073198;28;20048;-59
2024/01/12 06:52:23;;;;;;;1.10;1.10;;;;;;;-3.50;100.00;100855.56;5077623;28;20122;-60
2024/01/12 06:54:50;;;;;;;1.00;1.00;;;;;;;-3.47;100.00;100854.50;5078484;28;20040;-59
2024/01/12 06:57:19;;;;;;;1.08;1.08;;;;;;;-3.52;100.00;100854.00;5080030;28;20426;-59
2024/01/12 06:59:46;;;;;;;0.90;0.90;;;;;;;-3.54;100.00;100858.53;5078256;28;20049;-60
2024/01/12 07:02:14;;;;;;;1.00;1.00;;;;;;;-3.49;100.00;100866.91;5079752;28;20143;-59
2024/01/12 07:04:41;;;;;;;1.10;1.10;;;;;;;-3.56;100.00;100870.91;5072709;28;20059;-59
2024/01/12 07:07:09;;;;;;;1.00;1.00;;;;;;;-3.51;100.00;100863.56;5081107;28;20137;-59
2024/01/12 07:09:36;;;;;;;1.02;1.02;;;;;;;-3.50;100.00;100870.47;5079374;28;20132;-59
2024/01/12 07:12:03;;;;;;;1.00;1.00;;;;;;;-3.50;100.00;100862.59;5080357;28;20077;-59
2024/01/12 07:14:32;;;;;;;1.00;1.00;;;;;;;-3.47;100.00;100865.00;5071809;28;20045;-59
2024/01/12 07:16:59;;;;;;;0.93;0.93;;;;;;;-3.38;100.00;100869.56;5079218;28;20097;-59
2024/01/12 07:19:26;;;;;;;1.00;1.00;;;;;;;-3.30;100.00;100864.59;5073183;28;20044;-59
2024/01/12 07:21:53;;;;;;;1.00;1.00;;;;;;;-3.37;100.00;100868.63;5077651;28;20131;-60
2024/01/12 07:24:20;;;;;;;0.90;0.90;;;;;;;-3.35;100.00;100866.72;5081663;28;20058;-59
2024/01/12 07:26:47;;;;;;;0.82;0.82;;;;;;;-3.48;100.00;100868.56;5059260;28;20041;-59
2024/01/12 07:29:16;;;;;;;1.00;1.00;;;;;;;-3.36;100.00;100878.16;5080693;28;20044;-59
2024/01/12 07:31:45;;;;;;;1.10;1.10;;;;;;;-3.31;100.00;100873.41;5080245;28;20117;-60
2024/01/12 07:34:12;;;;;;;0.90;0.90;;;;;;;-3.32;100.00;100879.63;5082724;28;20075;-60
2024/01/12 07:36:39;;;;;;;1.10;1.10;;;;;;;-3.25;100.00;100869.50;5060776;28;20043;-59
2024/01/12 07:39:24;;;;;;;1.00;1.00;;;;;;;-3.25;100.00;100869.50;5077276;28;20461;-60
2024/01/12 07:41:51;;;;;;;1.00;1.00;;;;;;;-3.13;100.00;100858.09;5070191;28;20047;-60
2024/01/12 07:44:18;;;;;;;1.00;1.00;;;;;;;-3.00;100.00;100862.44;5063496;28;20056;-60
2024/01/12 07:46:48;;;;;;;1.00;1.00;;;;;;;-2.97;100.00;100860.44;5081196;28;20505;-60
2024/01/12 07:49:16;;;;;;;0.90;0.90;;;;;;;-3.13;100.00;100846.78;5062359;28;20113;-60
2024/01/12 07:51:44;;;;;;;0.90;0.90;;;;;;;-2.94;100.00;100862.00;5078847;28;20161;-59
2024/01/12 07:54:30;;;;;;;1.00;1.00;;;;;;;-2.93;100.00;100859.22;5079538;28;20623;-59
2024/01/12 07:56:58;;;;;;;0.90;0.90;;;;;;;-2.91;100.00;100853.88;5063478;28;20044;-59
2024/01/12 07:59:25;;;;;;;1.00;1.00;;;;;;;-2.95;100.00;100850.63;5065569;28;20095;-59
2024/01/12 08:01:54;;;;;;;0.93;0.93;;;;;;;-2.86;100.00;100852.56;5064249;28;20067;-60
2024/01/12 08:04:24;;;;;;;1.00;1.00;;;;;;;-2.92;100.00;100850.44;5080532;28;20056;-60
2024/01/12 08:06:51;;;;;;;0.90;0.90;;;;;;;-2.91;100.00;100854.72;5062945;28;20040;-60
2024/01/12 08:09:19;;;;;;;0.95;0.95;;;;;;;-2.89;100.00;100859.84;5058620;28;20091;-59
2024/01/12 08:11:46;;;;;;;0.90;0.90;;;;;;;-2.73;100.00;100851.66;5076077;28;20081;-60
2024/01/12 08:14:32;;;;;;;0.90;0.90;;;;;;;-2.53;100.00;100865.88;5078752;28;20050;-59
2024/01/12 08:17:02;;;;;;;0.90;0.90;;;;;;;-2.56;100.00;100864.31;5060285;28;20048;-59
2024/01/12 08:19:29;;;;;;;0.90;0.90;;;;;;;-2.67;100.00;100865.16;5041571;28;20414;-60
2024/01/12 08:21:57;;;;;;;0.95;0.95;;;;;;;-2.31;100.00;100865.88;5078247;28;20039;-59
2024/01/12 08:24:42;;;;;;;1.08;1.08;;;;;;;-2.46;100.00;100862.66;5078310;28;20493;-59
2024/01/12 08:27:28;;;;;;;0.95;0.95;;;;;;;-2.72;100.00;100855.94;5063275;28;20149;-60
2024/01/12 08:29:55;;;;;;;1.00;1.00;;;;;;;-2.71;100.00;100860.25;5075333;28;20055;-59
2024/01/12 08:32:25;;;;;;;1.00;1.00;;;;;;;-2.59;100.00;100861.94;5076674;28;20516;-60
2024/01/12 08:34:52;;;;;;;0.95;0.95;;;;;;;-2.61;100.00;100861.22;5077126;28;20398;-59
2024/01/12 08:37:19;;;;;;;0.90;0.90;;;;;;;-2.56;100.00;100856.44;5078298;28;20129;-60
2024/01/12 08:39:52;;;;;;;1.00;1.00;;;;;;;-2.50;100.00;100866.47;5076259;28;20135;-59
2024/01/12 08:42:19;;;;;;;0.90;0.90;;;;;;;-2.45;100.00;100866.94;5077044;28;20044;-59
2024/01/12 08:44:47;;;;;;;1.00;1.00;;;;;;;-2.52;100.00;100867.53;5074317;28;20052;-60
2024/01/12 08:47:14;;;;;;;0.90;0.90;;;;;;;-2.54;100.00;100870.28;5076286;28;20572;-59
2024/01/12 08:49:42;;;;;;;1.00;1.00;;;;;;;-2.46;100.00;100864.44;5080692;28;20044;-59
2024/01/12 08:52:10;;;;;;;0.80;0.80;;;;;;;-2.50;100.00;100871.72;5078897;28;20119;-59
2024/01/12 08:54:37;;;;;;;0.80;0.80;;;;;;;-2.33;100.00;100861.72;5071781;28;20052;-59
2024/01/12 08:57:04;;;;;;;0.95;0.95;;;;;;;-2.25;100.00;100869.81;5075423;28;20040;-59
2024/01/12 08:59:32;;;;;;;0.90;0.90;;;;;;;-2.29;100.00;100863.16;5080678;28;20048;-60
2024/01/12 09:01:59;;;;;;;0.90;0.90;;;;;;;-2.32;100.00;100863.38;5079409;28;20137;-59
2024/01/12 09:04:28;;;;;;;0.90;0.90;;;;;;;-2.38;100.00;100862.06;5037470;28;20052;-59
2024/01/12 09:06:56;;;;;;;1.02;1.02;;;;;;;-2.27;100.00;100871.72;5081186;28;20406;-59
2024/01/12 09:09:23;;;;;;;0.93;0.93;;;;;;;-2.29;100.00;100873.66;5075659;28;20591;-59
2024/01/12 09:11:50;;;;;;;0.98;0.98;;;;;;;-2.29;100.00;100879.75;5072286;28;20131;-59
2024/01/12 09:14:18;;;;;;;0.90;0.90;;;;;;;-2.23;100.00;100878.41;5077197;28;20740;-59
2024/01/12 09:16:45;;;;;;;1.00;1.00;;;;;;;-2.29;100.00;100874.50;5076128;28;20052;-59
2024/01/12 09:19:12;;;;;;;0.90;0.90;;;;;;;-2.27;100.00;100876.97;5079780;28;20131;-59
2024/01/12 09:21:39;;;;;;;0.93;0.93;;;;;;;-2.24;100.00;100867.09;5080296;28;20079;-59
2024/01/12 09:24:08;;;;;;;0.90;0.90;;;;;;;-2.32;100.00;100880.00;5078593;28;20526;-59
2024/01/12 09:26:35;;;;;;;0.90;0.90;;;;;;;-2.11;100.00;100882.72;5059962;28;20040;-59
2024/01/12 09:29:02;;;;;;;1.10;1.10;;;;;;;-2.13;100.00;100891.69;5075218;28;20054;-59
2024/01/12 09:31:30;;;;;;;0.90;0.90;;;;;;;-2.28;100.00;100896.34;5077975;28;20048;-59
2024/01/12 09:33:58;;;;;;;1.00;1.00;;;;;;;-2.39;100.00;100905.88;5075684;28;20395;-59
2024/01/12 09:36:25;;;;;;;1.00;1.00;;;;;;;-2.30;100.00;100909.56;5076219;28;20071;-59
2024/01/12 09:38:52;;;;;;;1.00;1.00;;;;;;;-2.34;100.00;100905.53;5083090;28;20040;-59
2024/01/12 09:41:23;;;;;;;1.00;1.00;;;;;;;-2.24;100.00;100895.16;5083762;28;20048;-60
2024/01/12 09:43:50;;;;;;;0.88;0.88;;;;;;;-2.24;100.00;100906.50;5052430;28;20118;-59
2024/01/12 09:46:17;;;;;;;0.90;0.90;;;;;;;-2.28;100.00;100914.72;5084350;28;20105;-59
2024/01/12 09:48:44;;;;;;;0.90;0.90;;;;;;;-2.28;100.00;100914.72;5079803;28;20037;-59
2024/01/12 09:51:12;;;;;;;0.82;0.82;;;;;;;-2.22;100.00;100906.34;5078702;28;20043;-59
2024/01/12 09:53:39;;;;;;;0.93;0.93;;;;;;;-2.24;100.00;100908.28;5083816;28;20040;-59
2024/01/12 09:56:06;;;;;;;0.98;0.98;;;;;;;-2.29;100.00;100898.13;5083732;28;20044;-59
2024/01/12 09:58:34;;;;;;;0.90;0.90;;;;;;;-2.18;100.00;100902.53;5082195;28;20048;-59
2024/01/12 10:01:01;;;;;;;0.90;0.90;;;;;;;-2.24;100.00;100909.13;5084414;28;20062;-59
2024/01/12 10:03:29;;;;;;;0.98;0.98;;;;;;;-2.25;100.00;100904.78;5077164;28;20489;-59
2024/01/12 10:05:56;;;;;;;1.02;1.02;;;;;;;-2.15;100.00;100907.56;5084160;28;20050;-59
2024/01/12 10:08:23;;;;;;;0.90;0.90;;;;;;;-2.13;100.00;100902.19;5074518;28;20180;-59
2024/01/12 10:10:51;;;;;;;0.90;0.90;;;;;;;-2.12;100.00;100909.09;5079708;28;20044;-59
2024/01/12 10:13:18;;;;;;;0.90;0.90;;;;;;;-2.10;100.00;100905.41;5078370;28;20105;-59
2024/01/12 10:15:46;;;;;;;1.10;1.10;;;;;;;-2.13;100.00;100905.66;5074316;28;20052;-59
2024/01/12 10:18:13;;;;;;;1.05;1.05;;;;;;;-2.23;100.00;100904.69;5061867;28;20144;-59
2024/01/12 10:20:40;;;;;;;0.82;0.82;;;;;;;-2.15;100.00;100901.47;5082349;28;20127;-59
2024/01/12 10:23:08;;;;;;;0.90;0.90;;;;;;;-2.17;100.00;100909.50;5083222;28;20055;-59
2024/01/12 10:25:36;;;;;;;0.98;0.98;;;;;;;-2.13;100.00;100910.06;5083329;28;20138;-59
2024/01/12 10:28:03;;;;;;;0.98;0.98;;;;;;;-2.19;100.00;100908.75;5081982;28;20063;-58
2024/01/12 10:30:31;;;;;;;1.00;1.00;;;;;;;-2.11;100.00;100914.25;5064400;28;20051;-59
2024/01/12 10:33:01;;;;;;;1.10;1.10;;;;;;;-2.16;100.00;100905.88;5060197;28;20035;-59
2024/01/12 10:35:30;;;;;;;1.10;1.10;;;;;;;-2.12;100.00;100901.22;5082750;28;20059;-59
2024/01/12 10:37:59;;;;;;;0.90;0.90;;;;;;;-2.03;100.00;100895.25;5075923;28;20044;-59
2024/01/12 10:40:26;;;;;;;1.10;1.10;;;;;;;-2.14;100.00;100909.25;5078178;28;20405;-59
2024/01/12 10:42:54;;;;;;;0.90;0.90;;;;;;;-2.07;100.00;100899.94;5079089;28;20410;-59
2024/01/12 10:45:22;;;;;;;0.85;0.85;;;;;;;-1.94;100.00;100891.09;5081824;28;20048;-60
2024/01/12 10:47:52;;;;;;;1.02;1.02;;;;;;;-1.97;100.00;100895.63;5081244;28;20060;-59
2024/01/12 10:50:21;;;;;;;0.93;0.93;;;;;;;-1.91;100.00;100890.84;5083367;28;20044;-59
2024/01/12 10:52:53;;;;;;;0.85;0.85;;;;;;;-2.00;100.00;100889.75;5081250;28;20036;-59
2024/01/12 10:55:22;;;;;;;1.00;1.00;;;;;;;-1.93;100.00;100885.69;5083182;28;20051;-59
2024/01/12 10:57:50;;;;;;;1.00;1.00;;;;;;;-1.79;100.00;100887.25;5077862;28;20064;-59
2024/01/12 11:00:17;;;;;;;1.00;1.00;;;;;;;-1.96;100.00;100883.31;5082933;28;20044;-59
2024/01/12 11:02:44;;;;;;;0.93;0.93;;;;;;;-2.03;100.00;100880.31;5082765;28;20150;-59
2024/01/12 11:05:11;;;;;;;1.00;1.00;;;;;;;-2.05;100.00;100882.22;5076675;28;20163;-59
2024/01/12 11:07:41;;;;;;;1.10;1.10;;;;;;;-1.99;100.00;100866.00;5078033;28;20094;-59
2024/01/12 11:10:08;;;;;;;1.10;1.10;;;;;;;-1.86;100.00;100865.03;5082600;28;20166;-59
2024/01/12 11:12:36;;;;;;;0.90;0.90;;;;;;;-1.80;100.00;100875.03;5072828;28;20071;-59
2024/01/12 11:15:04;;;;;;;0.80;0.80;;;;;;;-1.83;100.00;100864.78;5065222;28;20173;-59
2024/01/12 11:17:32;;;;;;;0.88;0.88;;;;;;;-1.80;100.00;100864.53;5066165;28;20140;-59
2024/01/12 11:20:10;;;;;;;0.80;0.80;;;;;;;-1.81;100.00;100868.13;5075926;28;20135;-59